Time;durP1;ratioP1;P1;durP2;ratioP2;P2;SDS_P1;SDS_P2;PMS_P1;PMS_P2;Temp;Humidity;BMP_temperature;BMP_pressure;BME280_temperature;BME280_humidity;BME280_pressure;Samples;Min_cycle;Max_cycle;Signal;HPM_P1;HPM_P2
2022/02/05 00:02:55;;;;;;;0.40;0.32;;;9.20;72.50;;;;;;21055278;28;20086;-78
2022/02/05 00:43:58;;;;;;;6.35;0.88;;;9.20;72.30;;;;;;21081736;28;20055;-78
2022/02/05 00:54:12;;;;;;;4.13;0.55;;;9.20;72.30;;;;;;21088916;28;20047;-78
2022/02/05 01:04:13;;;;;;;7.38;1.20;;;9.20;72.30;;;;;;21087718;28;20431;-78
2022/02/05 01:14:17;;;;;;;2.53;0.75;;;9.30;72.40;;;;;;21084082;28;20081;-78
2022/02/05 01:24:20;;;;;;;3.78;1.00;;;9.20;72.20;;;;;;20982891;28;20085;-77
2022/02/05 01:34:30;;;;;;;5.50;1.20;;;9.20;72.20;;;;;;21016419;28;20054;-76
2022/02/05 01:55:12;;;;;;;1.92;1.23;;;9.20;72.20;;;;;;20997870;28;20036;-78
2022/02/05 02:05:13;;;;;;;5.28;1.38;;;9.10;72.10;;;;;;20984151;28;20441;-76
2022/02/05 02:15:22;;;;;;;2.83;0.70;;;9.10;72.00;;;;;;20979086;28;20093;-78
2022/02/05 02:35:31;;;;;;;1.25;0.75;;;9.10;72.00;;;;;;21011234;28;20463;-77
2022/02/05 02:45:33;;;;;;;2.60;1.00;;;9.10;71.90;;;;;;20994262;28;20064;-78
2022/02/05 03:05:56;;;;;;;2.45;1.10;;;9.10;71.70;;;;;;20971942;28;20144;-77
2022/02/05 03:16:00;;;;;;;1.65;1.05;;;9.10;71.70;;;;;;20990978;28;20039;-77
2022/02/05 03:26:01;;;;;;;2.72;0.80;;;9.10;71.70;;;;;;20996488;28;20032;-77
2022/02/05 03:36:02;;;;;;;2.65;1.05;;;9.10;71.60;;;;;;20986764;28;20045;-77
2022/02/05 03:46:04;;;;;;;1.50;0.85;;;9.10;71.50;;;;;;20972807;28;20549;-77
2022/02/05 03:56:09;;;;;;;3.88;1.30;;;9.10;71.50;;;;;;20941912;28;20386;-77
2022/02/05 04:06:10;;;;;;;4.28;1.35;;;9.10;71.50;;;;;;20988022;28;20115;-78
2022/02/05 04:16:22;;;;;;;2.90;1.02;;;9.00;71.40;;;;;;20987849;28;20445;-78
2022/02/05 04:26:24;;;;;;;1.90;0.93;;;9.10;71.40;;;;;;20955433;28;20036;-79
2022/02/05 04:36:25;;;;;;;3.20;0.95;;;9.10;71.40;;;;;;20971024;28;20150;-78
2022/02/05 04:47:03;;;;;;;1.75;0.95;;;9.00;71.40;;;;;;20969845;28;20501;-77
2022/02/05 04:57:21;;;;;;;3.15;1.50;;;9.10;71.40;;;;;;20973931;28;20052;-77
2022/02/05 05:27:42;;;;;;;0.40;0.20;;;9.00;71.00;;;;;;20977570;28;20474;-78
2022/02/05 05:37:49;;;;;;;1.33;0.52;;;9.00;71.00;;;;;;20982892;28;20075;-78
2022/02/05 05:47:55;;;;;;;3.08;0.50;;;8.90;71.00;;;;;;20965974;28;20399;-77
2022/02/05 05:57:57;;;;;;;0.90;0.50;;;8.90;71.00;;;;;;21059074;28;20028;-77
2022/02/05 06:07:59;;;;;;;0.88;0.20;;;8.90;71.00;;;;;;21081056;28;20031;-77
2022/02/05 06:18:00;;;;;;;0.75;0.30;;;8.90;71.00;;;;;;21062910;28;20046;-77
2022/02/05 06:28:02;;;;;;;3.42;0.45;;;9.00;71.00;;;;;;21063037;28;20393;-77
2022/02/05 06:38:06;;;;;;;5.10;0.70;;;9.10;70.90;;;;;;21077124;28;20332;-78
2022/02/05 06:48:09;;;;;;;2.42;0.47;;;9.10;70.70;;;;;;21079580;28;20040;-77
2022/02/05 06:58:11;;;;;;;1.58;0.55;;;9.10;70.70;;;;;;21060053;28;20032;-78
2022/02/05 07:08:14;;;;;;;0.65;0.50;;;9.00;70.60;;;;;;21075826;28;20040;-78
2022/02/05 07:18:28;;;;;;;1.60;0.70;;;9.00;70.70;;;;;;21028945;28;20032;-78
2022/02/05 07:38:49;;;;;;;23.15;2.13;;;9.00;70.80;;;;;;20974664;28;20101;-76
2022/02/05 07:48:50;;;;;;;7.18;1.40;;;9.00;70.90;;;;;;20971859;28;20085;-75
2022/02/05 07:58:50;;;;;;;15.45;1.67;;;9.10;70.90;;;;;;20976632;28;20129;-76
2022/02/05 08:08:55;;;;;;;10.30;1.40;;;9.10;70.90;;;;;;20985915;28;20398;-75
2022/02/05 08:18:57;;;;;;;5.55;1.02;;;9.10;71.00;;;;;;20970163;28;20363;-77
2022/02/05 08:29:00;;;;;;;8.27;1.70;;;9.00;70.90;;;;;;21020710;28;20093;-78
2022/02/05 08:39:00;;;;;;;7.80;1.95;;;9.00;70.80;;;;;;21057497;28;20083;-77
2022/02/05 08:49:04;;;;;;;4.70;1.48;;;9.00;70.70;;;;;;21009611;28;20124;-76
2022/02/05 08:59:04;;;;;;;8.52;2.22;;;9.00;70.60;;;;;;20955960;28;20416;-72
2022/02/05 09:09:14;;;;;;;5.13;1.52;;;9.00;70.70;;;;;;20967973;28;20040;-73
2022/02/05 09:19:15;;;;;;;6.32;1.42;;;9.00;70.70;;;;;;21001275;28;20040;-74
2022/02/05 09:29:20;;;;;;;9.67;1.10;;;9.00;70.70;;;;;;20966533;28;20024;-74
2022/02/05 09:39:21;;;;;;;11.98;1.63;;;9.10;70.60;;;;;;20981066;28;20348;-73
2022/02/05 09:49:24;;;;;;;5.53;1.58;;;8.90;70.40;;;;;;20982195;28;20029;-74
2022/02/05 09:59:25;;;;;;;5.82;1.40;;;8.90;70.30;;;;;;20980535;28;20043;-73
2022/02/05 10:09:26;;;;;;;6.87;1.57;;;8.90;70.10;;;;;;20996510;28;20040;-73
2022/02/05 10:20:05;;;;;;;3.75;1.13;;;8.90;70.10;;;;;;20978708;28;20330;-75
2022/02/05 10:30:11;;;;;;;4.55;0.98;;;8.90;70.00;;;;;;20823901;28;20444;-77
2022/02/05 10:40:14;;;;;;;7.80;1.73;;;8.90;69.90;;;;;;20979739;28;20036;-76
2022/02/05 10:50:24;;;;;;;7.18;2.03;;;8.90;69.90;;;;;;20979798;28;20028;-76
2022/02/05 11:20:48;;;;;;;20.65;2.65;;;8.80;69.80;;;;;;20994691;28;20140;-79
2022/02/05 11:30:51;;;;;;;6.55;1.35;;;8.90;69.60;;;;;;20977622;28;20125;-79
2022/02/05 11:40:54;;;;;;;6.82;1.25;;;8.90;69.50;;;;;;20993843;28;20051;-81
2022/02/05 11:51:21;;;;;;;13.52;1.92;;;8.90;69.50;;;;;;20993603;28;20494;-80
2022/02/05 12:01:38;;;;;;;10.13;1.27;;;8.90;69.40;;;;;;21223975;22;20115;-77
2022/02/05 12:11:39;;;;;;;6.70;2.03;;;9.00;69.30;;;;;;20823064;28;20029;-77
2022/02/05 12:21:59;;;;;;;10.95;1.67;;;8.90;69.30;;;;;;20838710;28;20051;-73
2022/02/05 12:32:00;;;;;;;3.60;0.95;;;8.90;69.30;;;;;;20822460;28;20033;-77
2022/02/05 12:42:14;;;;;;;9.57;1.25;;;8.90;69.10;;;;;;20822156;28;20499;-79
2022/02/05 12:52:15;;;;;;;5.57;1.20;;;8.90;69.00;;;;;;20854601;28;20033;-79
2022/02/05 13:02:18;;;;;;;8.63;2.03;;;8.90;69.10;;;;;;20820966;28;20132;-80
2022/02/05 13:12:34;;;;;;;9.27;1.10;;;8.90;68.90;;;;;;20838639;28;20038;-80
2022/02/05 13:43:29;;;;;;;2.17;0.77;;;8.90;68.50;;;;;;20837968;28;20037;-82
2022/02/05 13:53:32;;;;;;;2.13;0.80;;;8.90;69.10;;;;;;20839538;28;20048;-80
2022/02/05 14:03:37;;;;;;;4.68;0.80;;;8.90;68.50;;;;;;20854675;28;20037;-81
2022/02/05 14:13:38;;;;;;;3.50;1.17;;;8.90;68.50;;;;;;20838242;28;20033;-79
2022/02/05 14:23:50;;;;;;;5.22;1.10;;;8.90;68.50;;;;;;20836715;28;20095;-82
2022/02/05 14:44:03;;;;;;;6.95;0.93;;;8.90;68.00;;;;;;20853227;28;20044;-80
2022/02/05 14:54:05;;;;;;;15.20;1.45;;;8.90;67.90;;;;;;20839136;28;20041;-84
2022/02/05 15:04:07;;;;;;;5.75;1.13;;;8.80;67.60;;;;;;20838309;28;20399;-83
2022/02/05 15:14:09;;;;;;;5.07;1.38;;;8.90;67.60;;;;;;20838847;28;20039;-83
2022/02/05 15:24:10;;;;;;;2.08;0.73;;;8.80;67.50;;;;;;20852988;28;20044;-81
2022/02/05 15:34:11;;;;;;;3.60;1.08;;;8.80;67.50;;;;;;20849044;28;20040;-81
2022/02/05 15:44:11;;;;;;;6.43;0.95;;;8.80;67.50;;;;;;20817389;28;20041;-80
2022/02/05 15:54:15;;;;;;;0.70;0.40;;;8.80;67.40;;;;;;20830966;28;20063;-79
2022/02/05 16:04:17;;;;;;;1.58;1.00;;;9.00;67.70;;;;;;20846764;28;20037;-82
2022/02/05 16:14:19;;;;;;;3.28;0.95;;;9.10;68.00;;;;;;20802182;28;20120;-79
2022/02/05 16:24:19;;;;;;;2.20;0.73;;;9.00;68.00;;;;;;20822168;28;20141;-76
2022/02/05 16:34:21;;;;;;;3.50;0.77;;;9.10;68.00;;;;;;20840203;28;20112;-77
2022/02/05 16:44:23;;;;;;;4.97;0.80;;;9.20;67.90;;;;;;20806509;28;20383;-78
2022/02/05 16:54:25;;;;;;;16.60;1.80;;;9.40;67.60;;;;;;20825905;28;20377;-77
2022/02/05 17:04:27;;;;;;;7.05;1.35;;;9.50;67.50;;;;;;20842036;28;20049;-85
2022/02/05 17:14:29;;;;;;;9.95;1.20;;;9.40;67.60;;;;;;20843347;28;20111;-80
2022/02/05 17:24:30;;;;;;;2.75;1.00;;;9.40;67.60;;;;;;20836916;28;20065;-84
2022/02/05 17:34:36;;;;;;;10.07;1.20;;;9.20;67.70;;;;;;20821920;28;20531;-80
2022/02/05 17:44:37;;;;;;;;;;;9.20;67.90;;;;;;20822140;28;20037;-80
2022/02/05 17:54:40;;;;;;;3.65;1.27;;;9.10;68.00;;;;;;20818258;28;19999;-79
2022/02/05 18:04:40;;;;;;;3.25;1.20;;;9.10;68.00;;;;;;20833784;28;20049;-79
2022/02/05 18:14:57;;;;;;;4.07;1.27;;;9.00;68.00;;;;;;20815867;28;20041;-79
2022/02/05 18:24:59;;;;;;;5.65;1.23;;;9.10;68.10;;;;;;20819023;28;20039;-78
2022/02/05 18:35:00;;;;;;;2.60;1.05;;;9.00;68.10;;;;;;20799465;28;20440;-79
2022/02/05 18:45:02;;;;;;;4.15;0.95;;;9.00;68.10;;;;;;20832410;28;20124;-79
2022/02/05 18:55:06;;;;;;;3.20;1.15;;;9.00;68.10;;;;;;20880427;28;20048;-78
2022/02/05 19:25:35;;;;;;;2.13;1.02;;;9.00;68.00;;;;;;20800335;28;20458;-78
2022/02/05 19:35:36;;;;;;;2.45;0.70;;;8.90;67.90;;;;;;20830855;28;20046;-77
2022/02/05 19:45:40;;;;;;;1.10;0.75;;;8.90;67.80;;;;;;20828906;28;20052;-77
2022/02/05 19:55:41;;;;;;;2.67;1.10;;;8.90;67.90;;;;;;20797951;28;20045;-77
2022/02/05 20:15:42;;;;;;;3.25;1.05;;;8.90;67.80;;;;;;20844759;28;20542;-78
2022/02/05 20:25:46;;;;;;;1.55;0.90;;;8.90;67.80;;;;;;20909252;28;20044;-77
2022/02/05 20:35:47;;;;;;;3.17;1.10;;;8.80;67.70;;;;;;20894039;28;20045;-78
2022/02/05 20:45:50;;;;;;;3.65;0.93;;;8.90;67.80;;;;;;20893140;28;20122;-77
2022/02/05 20:55:51;;;;;;;3.35;1.08;;;8.90;67.80;;;;;;20863970;28;20536;-78
2022/02/05 21:05:53;;;;;;;4.57;0.70;;;8.90;67.90;;;;;;20909533;28;20083;-78
2022/02/05 21:15:54;;;;;;;2.85;1.15;;;8.80;67.80;;;;;;20909008;28;20029;-79
2022/02/05 21:25:58;;;;;;;3.23;1.20;;;8.90;68.00;;;;;;20908039;28;20414;-79
2022/02/05 21:35:58;;;;;;;3.40;0.82;;;8.80;67.90;;;;;;20908017;28;20644;-79
2022/02/05 21:46:10;;;;;;;1.85;0.80;;;8.90;67.90;;;;;;20889917;28;20044;-77
2022/02/05 22:06:26;;;;;;;0.90;0.70;;;8.80;67.80;;;;;;20838866;28;20034;-78
2022/02/05 22:16:27;;;;;;;1.77;0.77;;;8.80;67.90;;;;;;20804899;28;20131;-79
2022/02/05 22:26:28;;;;;;;1.45;0.82;;;8.80;67.90;;;;;;20820992;28;20038;-78
2022/02/05 22:36:29;;;;;;;2.53;0.90;;;8.80;67.90;;;;;;20820303;28;20499;-79
2022/02/05 22:46:31;;;;;;;2.20;0.90;;;8.90;68.00;;;;;;20835197;28;20033;-78
2022/02/05 22:56:33;;;;;;;3.80;1.00;;;8.80;68.00;;;;;;20834525;28;20083;-79
2022/02/05 23:06:36;;;;;;;3.65;0.88;;;8.80;68.00;;;;;;20817431;28;20364;-78
2022/02/05 23:47:17;;;;;;;2.15;0.60;;;8.80;68.20;;;;;;20847575;28;20061;-77
2022/02/05 23:57:25;;;;;;;3.15;0.80;;;8.80;68.30;;;;;;20830532;28;20037;-77
